createdAt,value
2023-10-29T00:00:04.457Z,52.62
2023-10-29T00:02:06.784Z,52.83
2023-10-29T00:04:09.631Z,53.00
2023-10-29T00:06:13.090Z,52.60
2023-10-29T00:08:16.094Z,52.18
2023-10-29T00:10:19.435Z,52.26
2023-10-29T00:12:21.225Z,52.67
2023-10-29T00:14:23.766Z,52.94
2023-10-29T00:16:25.521Z,53.33
2023-10-29T00:18:27.308Z,53.50
2023-10-29T00:20:29.105Z,54.17
2023-10-29T00:22:31.067Z,53.75
2023-10-29T00:24:32.769Z,53.60
2023-10-29T00:26:34.471Z,53.59
2023-10-29T00:28:36.442Z,54.09
2023-10-29T00:30:39.081Z,54.08
2023-10-29T00:32:40.774Z,53.54
2023-10-29T00:34:42.635Z,53.08
2023-10-29T00:36:45.047Z,52.50
2023-10-29T00:38:46.749Z,52.56
2023-10-29T00:40:48.573Z,52.59
2023-10-29T00:42:50.206Z,52.32
2023-10-29T00:44:52.973Z,52.15
2023-10-29T00:46:56.011Z,52.12
2023-10-29T00:48:57.955Z,52.04
2023-10-29T00:51:00.100Z,52.23
2023-10-29T00:53:01.997Z,52.51
2023-10-29T00:55:05.040Z,52.63
2023-10-29T00:57:08.258Z,52.85
2023-10-29T00:59:13.168Z,52.81
2023-10-29T01:01:14.849Z,53.58
2023-10-29T01:03:17.736Z,53.84
2023-10-29T01:05:19.721Z,54.04
2023-10-29T01:07:21.540Z,54.20
2023-10-29T01:09:23.321Z,54.31
2023-10-29T01:11:25.099Z,54.41
2023-10-29T01:13:26.833Z,54.17
2023-10-29T01:15:28.584Z,53.89
2023-10-29T01:17:31.272Z,53.88
2023-10-29T01:19:35.792Z,53.84
2023-10-29T01:21:37.540Z,53.83
2023-10-29T01:23:39.523Z,53.49
2023-10-29T01:25:42.734Z,53.51
2023-10-29T01:27:46.047Z,53.67
2023-10-29T01:29:48.027Z,53.55
2023-10-29T01:31:50.118Z,54.33
2023-10-29T01:33:53.077Z,55.75
2023-10-29T01:35:54.760Z,56.65
2023-10-29T01:37:56.548Z,56.93
2023-10-29T01:39:59.288Z,56.86
2023-10-29T01:42:01.114Z,56.99
2023-10-29T01:44:03.911Z,56.94
2023-10-29T01:46:05.855Z,56.85
2023-10-29T01:48:07.803Z,56.85
2023-10-29T01:50:11.101Z,57.68
2023-10-29T01:52:13.803Z,57.84
2023-10-29T01:54:15.658Z,58.12
2023-10-29T01:56:17.887Z,58.44
2023-10-29T01:58:19.662Z,58.27
2023-10-29T02:00:21.800Z,58.85
2023-10-29T02:02:24.563Z,59.34
2023-10-29T02:04:28.395Z,59.11
2023-10-29T02:06:31.511Z,59.26
2023-10-29T02:08:33.539Z,58.90
2023-10-29T02:10:35.183Z,58.81
2023-10-29T02:12:37.792Z,58.75
2023-10-29T02:14:41.353Z,58.59
2023-10-29T02:16:44.467Z,58.60
2023-10-29T02:18:46.325Z,58.22
2023-10-29T02:20:48.046Z,58.18
2023-10-29T02:22:49.666Z,58.54
2023-10-29T02:24:51.969Z,59.17
2023-10-29T02:26:53.844Z,60.40
2023-10-29T02:28:55.518Z,60.13
2023-10-29T02:30:57.218Z,59.35
2023-10-29T02:32:59.611Z,58.50
2023-10-29T02:35:01.386Z,58.01
2023-10-29T02:37:03.564Z,57.60
2023-10-29T02:39:05.201Z,57.27
2023-10-29T02:41:08.528Z,56.38
2023-10-29T02:43:11.722Z,55.93
2023-10-29T02:45:13.604Z,55.99
2023-10-29T02:47:15.212Z,55.40
2023-10-29T02:49:17.524Z,55.92
2023-10-29T02:51:19.419Z,56.23
2023-10-29T02:53:22.346Z,57.38
2023-10-29T02:55:24.156Z,57.85
2023-10-29T02:57:25.832Z,58.30
2023-10-29T02:59:27.480Z,59.18
2023-10-29T03:01:29.505Z,60.31
2023-10-29T03:03:35.468Z,60.91
2023-10-29T03:05:50.164Z,61.03
2023-10-29T03:07:56.170Z,61.77
2023-10-29T03:09:59.333Z,62.02
2023-10-29T03:12:02.282Z,61.84
2023-10-29T03:14:04.715Z,61.94
2023-10-29T03:16:07.113Z,61.64
2023-10-29T03:18:09.086Z,62.05
2023-10-29T03:20:12.814Z,62.18
2023-10-29T03:22:14.946Z,62.10
2023-10-29T03:24:17.112Z,61.83
2023-10-29T03:26:18.862Z,61.89
2023-10-29T03:28:21.098Z,61.47
2023-10-29T03:30:22.842Z,61.67
2023-10-29T03:32:24.853Z,61.36
2023-10-29T03:34:26.781Z,61.28
2023-10-29T03:36:28.480Z,61.38
2023-10-29T03:38:30.271Z,61.08
2023-10-29T03:40:32.032Z,61.21
2023-10-29T03:42:34.656Z,61.39
2023-10-29T03:44:36.832Z,61.46
2023-10-29T03:46:39.752Z,61.43
2023-10-29T03:48:46.133Z,61.20
2023-10-29T03:50:47.997Z,61.25
2023-10-29T03:52:49.820Z,61.36
2023-10-29T03:54:51.728Z,61.40
2023-10-29T03:56:53.774Z,61.68
2023-10-29T03:58:55.624Z,61.77
2023-10-29T04:00:58.630Z,61.82
2023-10-29T04:03:00.480Z,61.69
2023-10-29T04:05:09.701Z,61.55
2023-10-29T04:07:13.160Z,61.50
2023-10-29T04:09:14.881Z,61.31
2023-10-29T04:11:17.383Z,61.68
2023-10-29T04:13:19.063Z,61.77
2023-10-29T04:15:20.703Z,61.98
2023-10-29T04:17:22.868Z,62.00
2023-10-29T04:19:25.156Z,62.60
2023-10-29T04:21:26.994Z,62.76
2023-10-29T04:23:28.776Z,63.31
2023-10-29T04:25:30.510Z,63.04
2023-10-29T04:27:32.308Z,62.65
2023-10-29T04:29:34.710Z,62.67
2023-10-29T04:31:36.951Z,62.37
2023-10-29T04:35:41.027Z,62.60
2023-10-29T04:37:42.724Z,62.26
2023-10-29T04:39:44.759Z,62.23
2023-10-29T04:41:50.416Z,62.02
2023-10-29T04:43:53.711Z,61.75
2023-10-29T04:45:58.071Z,62.20
2023-10-29T04:48:00.872Z,62.94
2023-10-29T04:50:02.981Z,65.25
2023-10-29T04:52:05.165Z,66.77
2023-10-29T04:54:08.816Z,66.90
2023-10-29T04:56:10.497Z,66.84
2023-10-29T04:58:12.786Z,66.98
2023-10-29T05:00:14.635Z,67.40
2023-10-29T05:02:19.962Z,67.39
2023-10-29T05:04:21.739Z,66.83
2023-10-29T05:06:24.095Z,65.98
2023-10-29T05:08:25.804Z,65.08
2023-10-29T05:10:29.916Z,64.24
2023-10-29T05:12:31.723Z,63.84
2023-10-29T05:14:33.397Z,63.08
2023-10-29T05:16:35.153Z,62.14
2023-10-29T05:18:37.133Z,61.96
2023-10-29T05:20:41.673Z,61.49
2023-10-29T05:22:43.574Z,60.95
2023-10-29T05:24:45.256Z,61.06
2023-10-29T05:26:47.482Z,60.97
2023-10-29T05:28:49.252Z,60.23
2023-10-29T05:30:51.015Z,59.23
2023-10-29T05:32:52.917Z,59.15
2023-10-29T05:34:56.195Z,59.29
2023-10-29T05:36:58.323Z,59.62
2023-10-29T05:39:00.356Z,60.13
2023-10-29T05:41:02.025Z,59.58
2023-10-29T05:43:03.777Z,59.77
2023-10-29T05:45:08.244Z,59.80
2023-10-29T05:47:10.421Z,59.90
2023-10-29T05:49:12.075Z,59.21
2023-10-29T05:51:18.889Z,59.08
2023-10-29T05:53:21.704Z,57.75
2023-10-29T05:55:23.871Z,57.72
2023-10-29T05:57:25.692Z,58.16
2023-10-29T05:59:29.404Z,58.32
2023-10-29T06:01:32.518Z,58.89
2023-10-29T06:03:36.205Z,58.88
2023-10-29T06:05:38.168Z,58.33
2023-10-29T06:07:44.960Z,59.24
2023-10-29T06:09:49.415Z,60.78
2023-10-29T06:11:51.236Z,62.23
2023-10-29T06:13:55.018Z,62.56
2023-10-29T06:15:57.023Z,62.49
2023-10-29T06:17:58.808Z,62.73
2023-10-29T06:20:04.472Z,62.09
2023-10-29T06:22:09.673Z,61.68
2023-10-29T06:24:11.530Z,60.71
2023-10-29T06:26:14.269Z,59.53
2023-10-29T06:28:16.021Z,59.19
2023-10-29T06:30:18.404Z,58.56
2023-10-29T06:32:20.965Z,58.15
2023-10-29T06:34:25.545Z,57.39
2023-10-29T06:36:27.248Z,56.98
2023-10-29T06:38:29.440Z,56.71
2023-10-29T06:40:31.185Z,56.37
2023-10-29T06:42:32.868Z,55.91
2023-10-29T06:44:34.612Z,55.86
2023-10-29T06:46:36.624Z,55.58
2023-10-29T06:48:42.904Z,55.19
2023-10-29T06:50:44.835Z,55.07
2023-10-29T06:52:46.605Z,54.93
2023-10-29T06:54:48.873Z,54.76
2023-10-29T06:56:50.736Z,54.70
2023-10-29T06:58:52.623Z,54.60
2023-10-29T07:00:55.810Z,54.30
2023-10-29T07:02:58.142Z,53.31
2023-10-29T07:05:03.291Z,53.44
2023-10-29T07:07:06.303Z,53.22
2023-10-29T07:09:08.548Z,53.33
2023-10-29T07:11:10.697Z,53.57
2023-10-29T07:13:12.826Z,53.58
2023-10-29T07:15:15.165Z,53.68
2023-10-29T07:17:18.073Z,53.10
2023-10-29T07:19:21.457Z,53.19
2023-10-29T07:21:23.422Z,53.38
2023-10-29T07:23:27.376Z,53.54
2023-10-29T07:25:29.270Z,52.76
2023-10-29T07:27:31.931Z,51.84
2023-10-29T07:29:33.685Z,51.64
2023-10-29T07:31:35.434Z,51.60
2023-10-29T07:33:37.310Z,51.37
2023-10-29T07:35:40.274Z,51.05
2023-10-29T07:37:42.388Z,50.76
2023-10-29T07:39:44.397Z,50.19
2023-10-29T07:41:46.036Z,49.96
2023-10-29T07:43:48.627Z,49.33
2023-10-29T07:45:53.359Z,49.52
2023-10-29T07:47:55.893Z,49.24
2023-10-29T07:49:57.682Z,48.95
2023-10-29T07:51:59.342Z,49.34
2023-10-29T07:54:01.465Z,49.20
2023-10-29T07:56:15.228Z,48.95
2023-10-29T07:58:17.169Z,48.95
2023-10-29T08:00:18.932Z,48.18
2023-10-29T08:02:20.536Z,48.03
2023-10-29T08:04:22.667Z,47.68
2023-10-29T08:06:24.712Z,48.19
2023-10-29T08:08:26.427Z,47.80
2023-10-29T08:10:28.149Z,47.42
2023-10-29T08:12:30.840Z,47.13
2023-10-29T08:14:32.765Z,46.24
2023-10-29T08:16:34.432Z,46.98
2023-10-29T08:18:36.324Z,47.73
2023-10-29T08:20:38.538Z,48.06
2023-10-29T08:22:40.260Z,48.83
2023-10-29T08:24:41.963Z,49.52
2023-10-29T08:26:44.016Z,51.08
2023-10-29T08:28:46.197Z,50.79
2023-10-29T08:30:51.077Z,50.55
2023-10-29T08:32:53.214Z,50.47
2023-10-29T08:34:54.986Z,49.88
2023-10-29T08:36:57.051Z,49.04
2023-10-29T08:38:58.740Z,48.46
2023-10-29T08:41:00.514Z,47.85
2023-10-29T08:43:05.839Z,48.28
2023-10-29T08:45:10.040Z,49.13
2023-10-29T08:47:11.825Z,49.25
2023-10-29T08:49:13.712Z,49.51
2023-10-29T08:51:17.064Z,48.50
2023-10-29T08:53:19.078Z,48.62
2023-10-29T08:55:20.870Z,47.76
2023-10-29T08:57:22.843Z,46.84
2023-10-29T08:59:27.312Z,46.09
2023-10-29T09:01:29.797Z,45.71
2023-10-29T09:03:31.753Z,45.45
2023-10-29T09:05:33.599Z,45.41
2023-10-29T09:07:37.184Z,44.95
2023-10-29T09:09:39.118Z,44.53
2023-10-29T09:11:44.481Z,44.17
2023-10-29T09:13:46.465Z,44.37
2023-10-29T09:15:50.213Z,43.91
2023-10-29T09:17:52.113Z,43.97
2023-10-29T09:19:54.351Z,43.61
2023-10-29T09:21:56.257Z,43.19
2023-10-29T09:23:58.081Z,43.04
2023-10-29T09:26:00.730Z,42.70
2023-10-29T09:28:08.841Z,42.02
2023-10-29T09:30:11.215Z,41.83
2023-10-29T09:32:15.202Z,41.89
2023-10-29T09:34:16.905Z,41.81
2023-10-29T09:36:19.524Z,41.75
2023-10-29T09:38:21.749Z,41.89
2023-10-29T09:40:23.457Z,41.47
2023-10-29T09:42:31.309Z,41.50
2023-10-29T09:44:35.011Z,43.04
2023-10-29T09:46:38.392Z,43.76
2023-10-29T09:48:41.602Z,44.01
2023-10-29T09:50:45.061Z,43.52
2023-10-29T09:52:51.291Z,43.20
2023-10-29T09:54:53.662Z,42.90
2023-10-29T09:56:55.585Z,42.62
2023-10-29T09:58:57.474Z,41.88
2023-10-29T10:00:59.578Z,42.43
2023-10-29T10:03:01.632Z,42.32
2023-10-29T10:05:06.499Z,42.61
2023-10-29T10:07:08.678Z,43.35
2023-10-29T10:09:11.757Z,43.36
2023-10-29T10:11:24.040Z,43.34
2023-10-29T10:13:45.122Z,42.95
2023-10-29T10:15:52.761Z,42.38
2023-10-29T10:18:01.377Z,42.07
2023-10-29T10:20:08.507Z,41.82
2023-10-29T10:22:10.578Z,41.37
2023-10-29T10:24:13.286Z,40.97
2023-10-29T10:26:19.822Z,40.72
2023-10-29T10:28:22.082Z,40.66
2023-10-29T10:30:35.326Z,40.17
2023-10-29T10:32:39.041Z,39.35
2023-10-29T10:34:51.763Z,39.37
2023-10-29T10:37:00.521Z,39.46
2023-10-29T10:39:02.251Z,38.83
2023-10-29T10:41:04.125Z,38.17
2023-10-29T10:43:07.844Z,38.22
2023-10-29T10:45:09.761Z,38.34
2023-10-29T10:47:11.922Z,38.32
2023-10-29T10:49:14.873Z,38.11
2023-10-29T10:51:17.416Z,37.63
2023-10-29T10:53:20.635Z,37.62
2023-10-29T10:55:47.016Z,37.31
2023-10-29T10:57:48.655Z,38.05
2023-10-29T10:59:51.288Z,38.41
2023-10-29T11:01:53.707Z,39.00
2023-10-29T11:03:56.241Z,39.46
2023-10-29T11:05:58.360Z,39.48
2023-10-29T11:08:00.262Z,39.78
2023-10-29T11:10:04.244Z,40.10
2023-10-29T11:12:06.852Z,39.45
2023-10-29T11:14:17.431Z,39.51
2023-10-29T11:16:24.092Z,38.50
2023-10-29T11:18:32.107Z,37.96
2023-10-29T11:20:50.938Z,37.94
2023-10-29T11:22:53.416Z,37.80
2023-10-29T11:25:10.049Z,37.68
2023-10-29T11:27:44.768Z,37.36
2023-10-29T11:29:46.574Z,37.61
2023-10-29T11:31:48.248Z,37.72
2023-10-29T11:34:00.762Z,36.94
2023-10-29T11:36:36.319Z,37.61
2023-10-29T11:38:40.693Z,37.34
2023-10-29T11:40:43.493Z,37.20
2023-10-29T11:42:47.903Z,36.26
2023-10-29T11:44:49.835Z,36.11
2023-10-29T11:47:09.772Z,35.98
2023-10-29T11:49:11.526Z,35.13
2023-10-29T11:51:13.441Z,35.54
2023-10-29T11:53:25.931Z,35.07
2023-10-29T11:55:44.331Z,34.56
2023-10-29T11:57:47.300Z,34.65
2023-10-29T11:59:56.244Z,33.28
2023-10-29T12:01:58.183Z,33.29
2023-10-29T12:04:00.181Z,33.71
2023-10-29T12:06:02.183Z,34.02
2023-10-29T12:08:05.314Z,34.03
2023-10-29T12:10:07.474Z,33.95
2023-10-29T12:12:12.653Z,33.59
2023-10-29T12:14:14.546Z,33.46
2023-10-29T12:16:16.219Z,33.18
2023-10-29T12:18:26.427Z,32.14
2023-10-29T12:20:30.259Z,32.46
2023-10-29T12:22:33.650Z,32.11
2023-10-29T12:24:35.700Z,32.80
2023-10-29T12:26:37.428Z,33.26
2023-10-29T12:28:39.548Z,33.06
2023-10-29T12:30:51.071Z,32.74
2023-10-29T12:32:52.950Z,32.50
2023-10-29T12:34:59.898Z,32.10
2023-10-29T12:37:02.369Z,32.55
2023-10-29T12:39:06.201Z,32.77
2023-10-29T12:41:15.401Z,32.22
2023-10-29T12:43:17.392Z,31.94
2023-10-29T12:45:29.845Z,31.80
2023-10-29T12:47:31.507Z,31.03
2023-10-29T12:49:34.843Z,30.57
2023-10-29T12:51:37.917Z,29.28
2023-10-29T12:53:39.935Z,29.51
2023-10-29T12:55:47.926Z,29.45
2023-10-29T12:57:54.637Z,29.19
2023-10-29T12:59:57.642Z,29.67
2023-10-29T13:02:07.235Z,29.92
2023-10-29T13:04:09.161Z,29.62
2023-10-29T13:06:10.861Z,30.04
2023-10-29T13:08:15.318Z,29.76
2023-10-29T13:10:17.955Z,29.45
2023-10-29T13:12:19.779Z,30.62
2023-10-29T13:14:25.869Z,30.60
2023-10-29T13:16:27.862Z,30.29
2023-10-29T13:18:30.595Z,30.49
2023-10-29T13:20:34.744Z,30.47
2023-10-29T13:22:38.557Z,30.43
2023-10-29T13:24:40.439Z,31.05
2023-10-29T13:26:42.354Z,31.21
2023-10-29T13:28:45.634Z,31.35
2023-10-29T13:30:59.137Z,31.53
2023-10-29T13:33:01.065Z,31.85
2023-10-29T13:35:04.002Z,31.67
2023-10-29T13:37:05.715Z,31.94
2023-10-29T13:39:19.668Z,31.91
2023-10-29T13:41:24.478Z,31.41
2023-10-29T13:43:26.275Z,31.31
2023-10-29T13:45:28.406Z,31.42
2023-10-29T13:47:30.199Z,30.75
2023-10-29T13:49:31.895Z,30.95
2023-10-29T13:51:34.059Z,31.20
2023-10-29T13:53:35.884Z,31.03
2023-10-29T13:55:37.684Z,31.14
2023-10-29T13:57:40.100Z,31.14
2023-10-29T13:59:42.246Z,31.74
2023-10-29T14:01:44.133Z,30.78
2023-10-29T14:03:46.598Z,31.16
2023-10-29T14:05:49.102Z,31.24
2023-10-29T14:07:52.745Z,31.12
2023-10-29T14:09:54.369Z,31.16
2023-10-29T14:11:56.012Z,31.09
2023-10-29T14:13:59.408Z,31.12
2023-10-29T14:16:02.771Z,31.13
2023-10-29T14:18:05.313Z,31.55
2023-10-29T14:20:08.125Z,31.25
2023-10-29T14:22:10.081Z,30.94
2023-10-29T14:24:12.912Z,31.04
2023-10-29T14:26:14.574Z,31.13
2023-10-29T14:28:17.428Z,31.28
2023-10-29T14:30:19.307Z,31.39
2023-10-29T14:32:22.790Z,30.95
2023-10-29T14:34:24.529Z,31.10
2023-10-29T14:36:26.584Z,31.11
2023-10-29T14:38:28.744Z,31.33
2023-10-29T14:40:31.022Z,31.17
2023-10-29T14:42:32.840Z,31.44
2023-10-29T14:44:34.557Z,31.37
2023-10-29T14:46:37.935Z,31.95
2023-10-29T14:48:41.185Z,32.08
2023-10-29T14:50:43.521Z,32.84
2023-10-29T14:52:45.251Z,32.92
2023-10-29T14:54:47.096Z,32.82
2023-10-29T14:56:51.478Z,33.27
2023-10-29T14:58:53.981Z,33.64
2023-10-29T15:00:59.243Z,33.40
2023-10-29T15:03:01.282Z,33.95
2023-10-29T15:05:05.371Z,33.95
2023-10-29T15:07:07.121Z,33.92
2023-10-29T15:09:09.094Z,34.39
2023-10-29T15:11:12.244Z,34.50
2023-10-29T15:13:14.458Z,34.92
2023-10-29T15:15:28.825Z,35.19
2023-10-29T15:17:32.047Z,35.60
2023-10-29T15:19:36.936Z,35.71
2023-10-29T15:21:39.302Z,36.19
2023-10-29T15:23:41.417Z,36.34
2023-10-29T15:25:45.564Z,36.43
2023-10-29T15:27:47.208Z,36.99
2023-10-29T15:29:53.810Z,37.06
2023-10-29T15:31:55.604Z,37.67
2023-10-29T15:33:57.748Z,37.65
2023-10-29T15:36:10.118Z,37.75
2023-10-29T15:38:14.657Z,37.72
2023-10-29T15:40:16.420Z,37.82
2023-10-29T15:42:18.353Z,37.73
2023-10-29T15:44:21.165Z,37.68
2023-10-29T15:46:22.918Z,37.81
2023-10-29T15:48:24.732Z,37.74
2023-10-29T15:50:26.500Z,37.80
2023-10-29T15:52:28.189Z,37.92
2023-10-29T15:54:30.844Z,37.99
2023-10-29T15:56:37.715Z,38.09
2023-10-29T15:58:39.655Z,38.18
2023-10-29T16:00:41.395Z,38.07
2023-10-29T16:02:43.793Z,38.02
2023-10-29T16:04:47.218Z,37.87
2023-10-29T16:06:50.646Z,38.14
2023-10-29T16:08:52.487Z,38.26
2023-10-29T16:10:57.116Z,38.42
2023-10-29T16:12:58.918Z,38.45
2023-10-29T16:15:03.073Z,38.39
2023-10-29T16:17:05.371Z,38.47
2023-10-29T16:19:07.370Z,38.56
2023-10-29T16:21:11.004Z,38.77
2023-10-29T16:23:13.679Z,38.71
2023-10-29T16:25:17.368Z,38.88
2023-10-29T16:27:18.950Z,39.03
2023-10-29T16:29:20.637Z,38.90
2023-10-29T16:31:23.483Z,39.00
2023-10-29T16:33:25.249Z,39.13
2023-10-29T16:35:27.027Z,39.40
2023-10-29T16:37:28.661Z,39.59
2023-10-29T16:39:30.427Z,39.55
2023-10-29T16:41:32.320Z,39.64
2023-10-29T16:43:36.999Z,39.87
2023-10-29T16:45:40.854Z,39.79
2023-10-29T16:47:42.716Z,39.53
2023-10-29T16:49:52.703Z,39.57
2023-10-29T16:51:57.171Z,39.61
2023-10-29T16:53:58.987Z,39.42
2023-10-29T16:56:07.022Z,39.23
2023-10-29T16:58:08.673Z,39.31
2023-10-29T17:00:11.594Z,39.14
2023-10-29T17:02:13.701Z,39.04
2023-10-29T17:04:17.780Z,39.33
2023-10-29T17:06:19.721Z,39.19
2023-10-29T17:08:22.334Z,39.28
2023-10-29T17:10:25.189Z,39.23
2023-10-29T17:12:27.502Z,39.04
2023-10-29T17:14:29.754Z,38.81
2023-10-29T17:16:33.282Z,38.85
2023-10-29T17:18:35.660Z,38.66
2023-10-29T17:20:38.715Z,38.65
2023-10-29T17:22:40.529Z,38.52
2023-10-29T17:24:43.210Z,40.59
2023-10-29T17:26:45.128Z,41.77
2023-10-29T17:28:51.070Z,42.81
2023-10-29T17:30:53.073Z,43.29
2023-10-29T17:32:58.918Z,43.45
2023-10-29T17:35:01.522Z,43.72
2023-10-29T17:37:05.223Z,44.50
2023-10-29T17:41:17.822Z,44.41
2023-10-29T17:43:23.260Z,44.37
2023-10-29T17:45:25.020Z,44.42
2023-10-29T17:47:26.952Z,44.59
2023-10-29T17:49:28.616Z,44.11
2023-10-29T17:51:30.725Z,44.24
2023-10-29T17:53:34.026Z,44.02
2023-10-29T17:55:36.306Z,43.92
2023-10-29T17:57:38.316Z,43.96
2023-10-29T17:59:41.340Z,44.05
2023-10-29T18:01:43.921Z,44.10
2023-10-29T18:03:48.183Z,44.10
2023-10-29T18:05:51.489Z,43.78
2023-10-29T18:07:54.668Z,44.11
2023-10-29T18:09:56.535Z,43.77
2023-10-29T18:11:58.164Z,43.95
2023-10-29T18:13:59.963Z,44.19
2023-10-29T18:16:02.396Z,44.27
2023-10-29T18:18:05.673Z,44.09
2023-10-29T18:20:07.990Z,43.99
2023-10-29T18:22:09.858Z,43.80
2023-10-29T18:24:11.785Z,43.70
2023-10-29T18:26:13.518Z,43.82
2023-10-29T18:28:15.263Z,43.59
2023-10-29T18:30:17.406Z,43.60
2023-10-29T18:32:19.210Z,43.91
2023-10-29T18:34:21.442Z,44.27
2023-10-29T18:36:27.946Z,44.03
2023-10-29T18:38:32.122Z,44.32
2023-10-29T18:40:35.906Z,44.50
2023-10-29T18:42:37.865Z,44.96
2023-10-29T18:44:39.856Z,44.89
2023-10-29T18:46:42.599Z,44.41
2023-10-29T18:48:47.966Z,44.66
2023-10-29T18:50:49.740Z,45.11
2023-10-29T18:52:51.629Z,45.60
2023-10-29T18:54:53.346Z,45.41
2023-10-29T18:56:55.227Z,45.50
2023-10-29T18:59:01.570Z,45.22
2023-10-29T19:01:12.432Z,45.71
2023-10-29T19:03:16.936Z,45.63
2023-10-29T19:05:22.108Z,46.14
2023-10-29T19:07:24.338Z,46.07
2023-10-29T19:09:26.285Z,46.73
2023-10-29T19:11:37.858Z,46.54
2023-10-29T19:13:39.918Z,45.05
2023-10-29T19:15:41.698Z,45.45
2023-10-29T19:17:44.825Z,45.17
2023-10-29T19:19:47.236Z,45.20
2023-10-29T19:21:49.109Z,44.90
2023-10-29T19:23:50.845Z,45.21
2023-10-29T19:25:52.518Z,44.96
2023-10-29T19:27:54.314Z,44.96
2023-10-29T19:29:56.319Z,45.04
2023-10-29T19:31:58.000Z,45.27
2023-10-29T19:34:01.322Z,45.80
2023-10-29T19:36:18.239Z,45.71
2023-10-29T19:38:20.098Z,45.70
2023-10-29T19:40:21.921Z,45.47
2023-10-29T19:42:23.835Z,45.44
2023-10-29T19:44:25.488Z,45.47
2023-10-29T19:46:27.843Z,45.21
2023-10-29T19:48:33.108Z,45.80
2023-10-29T19:50:35.384Z,46.40
2023-10-29T19:52:37.509Z,47.45
2023-10-29T19:54:39.694Z,48.08
2023-10-29T19:56:45.220Z,47.90
2023-10-29T19:58:47.061Z,47.60
2023-10-29T20:00:50.103Z,47.39
2023-10-29T20:02:52.146Z,47.77
2023-10-29T20:04:53.878Z,47.58
2023-10-29T20:06:56.275Z,48.26
2023-10-29T20:08:58.395Z,48.95
2023-10-29T20:11:00.194Z,49.80
2023-10-29T20:13:02.170Z,50.07
2023-10-29T20:15:04.576Z,50.16
2023-10-29T20:17:07.465Z,49.67
2023-10-29T20:19:09.283Z,49.76
2023-10-29T20:21:19.629Z,49.22
2023-10-29T20:23:22.141Z,49.19
2023-10-29T20:25:26.735Z,49.19
2023-10-29T20:27:28.867Z,49.86
2023-10-29T20:29:30.628Z,49.76
2023-10-29T20:31:32.346Z,50.27
2023-10-29T20:33:34.425Z,50.19
2023-10-29T20:35:37.071Z,50.10
2023-10-29T20:37:38.741Z,50.48
2023-10-29T20:39:40.666Z,50.10
2023-10-29T20:41:43.151Z,50.18
2023-10-29T20:43:45.137Z,50.13
2023-10-29T20:45:51.421Z,50.21
2023-10-29T20:47:53.149Z,49.86
2023-10-29T20:49:54.881Z,49.43
2023-10-29T20:51:57.058Z,49.29
2023-10-29T20:53:59.078Z,49.05
2023-10-29T20:56:08.010Z,49.13
2023-10-29T20:58:09.851Z,48.75
2023-10-29T21:00:13.531Z,48.56
2023-10-29T21:02:15.208Z,48.60
2023-10-29T21:04:17.958Z,48.67
2023-10-29T21:06:20.311Z,48.62
2023-10-29T21:08:23.064Z,48.52
2023-10-29T21:10:24.934Z,48.43
2023-10-29T21:12:26.711Z,48.55
2023-10-29T21:14:29.066Z,48.80
2023-10-29T21:16:31.157Z,48.94
2023-10-29T21:18:34.285Z,49.05
2023-10-29T21:20:37.558Z,49.41
2023-10-29T21:22:39.389Z,49.49
2023-10-29T21:24:41.825Z,49.90
2023-10-29T21:26:44.583Z,50.03
2023-10-29T21:28:46.323Z,50.59
2023-10-29T21:30:48.102Z,50.99
2023-10-29T21:32:49.959Z,51.03
2023-10-29T21:34:51.668Z,51.07
2023-10-29T21:36:53.422Z,50.70
2023-10-29T21:38:55.511Z,50.53
2023-10-29T21:41:03.472Z,50.79
2023-10-29T21:43:05.460Z,50.87
2023-10-29T21:45:09.274Z,51.10
2023-10-29T21:47:11.031Z,51.24
2023-10-29T21:49:14.326Z,51.62
2023-10-29T21:51:16.198Z,51.41
2023-10-29T21:53:18.261Z,51.60
2023-10-29T21:55:20.312Z,51.66
2023-10-29T21:57:23.126Z,51.90
2023-10-29T21:59:24.814Z,52.08
2023-10-29T22:01:27.546Z,52.18
2023-10-29T22:03:31.317Z,52.26
2023-10-29T22:05:34.402Z,52.13
2023-10-29T22:07:36.223Z,52.14
2023-10-29T22:09:38.017Z,52.46
2023-10-29T22:11:40.112Z,52.54
2023-10-29T22:13:42.427Z,52.32
2023-10-29T22:15:44.157Z,52.79
2023-10-29T22:17:47.251Z,52.91
2023-10-29T22:19:50.208Z,52.70
2023-10-29T22:21:53.398Z,52.76
2023-10-29T22:23:56.999Z,52.54
2023-10-29T22:25:58.730Z,52.47
2023-10-29T22:28:00.683Z,52.42
2023-10-29T22:30:02.423Z,52.98
2023-10-29T22:32:04.276Z,52.87
2023-10-29T22:34:06.005Z,53.08
2023-10-29T22:36:10.038Z,52.77
2023-10-29T22:38:14.525Z,53.21
2023-10-29T22:40:18.692Z,52.99
2023-10-29T22:42:21.389Z,53.07
2023-10-29T22:44:23.053Z,53.11
2023-10-29T22:46:24.681Z,52.70
2023-10-29T22:48:26.618Z,52.82
2023-10-29T22:50:28.340Z,52.99
2023-10-29T22:52:29.980Z,52.84
2023-10-29T22:54:32.697Z,53.15
2023-10-29T22:56:34.490Z,53.36
2023-10-29T22:58:36.651Z,53.11
2023-10-29T23:00:41.408Z,52.86
2023-10-29T23:02:43.471Z,52.65
2023-10-29T23:04:45.110Z,52.44
2023-10-29T23:06:47.766Z,52.83
2023-10-29T23:08:49.493Z,53.39
2023-10-29T23:10:51.143Z,53.38
2023-10-29T23:12:53.436Z,53.00
2023-10-29T23:14:55.119Z,53.10
2023-10-29T23:16:56.750Z,53.43
2023-10-29T23:18:58.506Z,53.30
2023-10-29T23:21:00.827Z,53.55
2023-10-29T23:23:04.522Z,53.53
2023-10-29T23:25:07.636Z,53.29
2023-10-29T23:27:10.054Z,53.46
2023-10-29T23:29:11.955Z,53.63
2023-10-29T23:31:14.317Z,53.71
2023-10-29T23:33:16.265Z,53.42
2023-10-29T23:35:18.168Z,53.96
2023-10-29T23:37:19.810Z,54.42
2023-10-29T23:39:21.596Z,54.48
2023-10-29T23:41:24.476Z,54.85
2023-10-29T23:43:28.205Z,55.12
2023-10-29T23:45:29.997Z,54.87
2023-10-29T23:47:31.773Z,55.13
2023-10-29T23:49:33.568Z,55.30
2023-10-29T23:51:35.225Z,55.58
2023-10-29T23:53:37.202Z,55.58
2023-10-29T23:55:40.046Z,56.07
2023-10-29T23:57:41.650Z,55.90
2023-10-29T23:59:43.515Z,55.46
